Time,TemperatureF,DewpointF,PressureIn,WindDirection,WindDirectionDegrees,WindSpeedMPH,WindSpeedGustMPH,Humidity,HourlyPrecipIn,Conditions,Clouds,dailyrainin,SolarRadiationWatts/m^2,SoftwareType,DateUTC
2013-08-02 00:00:00,57.0,54.0,-100.00,West,270,0.0,-999.0,89,-99.99,,,-99.99,0.000000,,2013-08-02 04:00:00,
2013-08-02 00:43:00,57.0,54.0,-100.00,West,270,0.0,-999.0,89,-99.99,,,-99.99,0.000000,,2013-08-02 04:43:00,
2013-08-02 00:53:00,57.0,54.0,-100.00,West,270,0.0,-999.0,89,-99.99,,,-99.99,0.000000,,2013-08-02 04:53:00,
2013-08-02 01:00:00,56.0,53.0,-100.00,WSW,247,0.0,-999.0,92,-99.99,,,-99.99,0.000000,,2013-08-02 05:00:00,
2013-08-02 01:32:00,56.0,53.0,-100.00,WSW,247,0.0,-999.0,92,-99.99,,,-99.99,0.000000,,2013-08-02 05:32:00,
2013-08-02 01:43:00,56.0,53.0,-100.00,WSW,247,0.0,-999.0,92,-99.99,,,-99.99,0.000000,,2013-08-02 05:43:00,
2013-08-02 01:53:00,56.0,53.0,-100.00,WSW,247,0.0,-999.0,92,-99.99,,,-99.99,0.000000,,2013-08-02 05:53:00,
2013-08-02 02:00:00,55.0,53.0,-100.00,SW,225,0.0,-999.0,93,-99.99,,,-99.99,0.000000,,2013-08-02 06:00:00,
2013-08-02 02:43:00,55.0,53.0,-100.00,SW,225,0.0,-999.0,93,-99.99,,,-99.99,0.000000,,2013-08-02 06:43:00,
2013-08-02 02:52:00,55.0,53.0,-100.00,SW,225,0.0,-999.0,93,-99.99,,,-99.99,0.000000,,2013-08-02 06:52:00,
2013-08-02 03:00:00,54.0,52.0,-100.00,WSW,247,0.0,-999.0,95,-99.99,,,-99.99,0.000000,,2013-08-02 07:00:00,
2013-08-02 03:44:00,54.0,52.0,-100.00,WSW,247,0.0,-999.0,95,-99.99,,,-99.99,0.000000,,2013-08-02 07:44:00,
2013-08-02 03:53:00,54.0,52.0,-100.00,WSW,247,0.0,-999.0,95,-99.99,,,-99.99,0.000000,,2013-08-02 07:53:00,
2013-08-02 16:00:00,74.0,62.0,-100.00,SW,225,14.0,-999.0,65,-99.99,,,-99.99,570.719971,,2013-08-02 20:00:00,
2013-08-02 16:43:00,74.0,62.0,-100.00,SW,225,14.0,-999.0,65,-99.99,,,-99.99,570.719971,,2013-08-02 20:43:00,
2013-08-02 16:52:00,74.0,62.0,-100.00,SW,225,14.0,-999.0,65,-99.99,,,-99.99,570.719971,,2013-08-02 20:52:00,
2013-08-02 17:00:00,75.0,62.0,-100.00,WSW,247,13.0,-999.0,64,-99.99,,,-99.99,592.760010,,2013-08-02 21:00:00,
2013-08-02 17:43:00,75.0,62.0,-100.00,WSW,247,13.0,-999.0,64,-99.99,,,-99.99,592.760010,,2013-08-02 21:43:00,
2013-08-02 17:53:00,75.0,62.0,-100.00,WSW,247,13.0,-999.0,64,-99.99,,,-99.99,592.760010,,2013-08-02 21:53:00,
2013-08-02 18:00:00,74.0,62.0,-100.00,WSW,247,10.0,-999.0,64,-99.99,,,-99.99,338.720001,,2013-08-02 22:00:00,
2013-08-02 18:43:00,74.0,62.0,-100.00,WSW,247,10.0,-999.0,64,-99.99,,,-99.99,338.720001,,2013-08-02 22:43:00,
2013-08-02 18:52:00,74.0,62.0,-100.00,WSW,247,10.0,-999.0,64,-99.99,,,-99.99,338.720001,,2013-08-02 22:52:00,
2013-08-02 19:00:00,75.0,61.0,-100.00,WSW,247,9.0,-999.0,63,-99.99,,,-99.99,314.359985,,2013-08-02 23:00:00,
2013-08-02 19:44:00,75.0,61.0,-100.00,WSW,247,9.0,-999.0,63,-99.99,,,-99.99,314.359985,,2013-08-02 23:44:00,
2013-08-02 19:53:00,75.0,61.0,-100.00,WSW,247,9.0,-999.0,63,-99.99,,,-99.99,314.359985,,2013-08-02 23:53:00,
2013-08-02 20:00:00,69.0,62.0,-100.00,West,270,7.0,-999.0,79,0.14,,,-99.99,39.439999,,2013-08-03 00:00:00,
2013-08-02 20:43:00,69.0,62.0,-100.00,West,270,7.0,-999.0,79,0.14,,,-99.99,39.439999,,2013-08-03 00:43:00,
2013-08-02 20:52:00,69.0,62.0,-100.00,West,270,7.0,-999.0,79,0.14,,,-99.99,39.439999,,2013-08-03 00:52:00,
2013-08-02 21:00:00,66.0,62.0,-100.00,WSW,247,5.0,-999.0,87,-99.99,,,-99.99,11.600000,,2013-08-03 01:00:00,
2013-08-02 21:32:00,66.0,62.0,-100.00,WSW,247,5.0,-999.0,87,-99.99,,,-99.99,11.600000,,2013-08-03 01:32:00,
2013-08-02 21:42:00,66.0,62.0,-100.00,WSW,247,5.0,-999.0,87,-99.99,,,-99.99,11.600000,,2013-08-03 01:42:00,
2013-08-02 21:53:00,66.0,62.0,-100.00,WSW,247,5.0,-999.0,87,-99.99,,,-99.99,11.600000,,2013-08-03 01:53:00,
2013-08-02 22:00:00,64.0,61.0,-100.00,West,270,1.0,-999.0,90,-99.99,,,-99.99,0.000000,,2013-08-03 02:00:00,
2013-08-02 22:32:00,64.0,61.0,-100.00,West,270,1.0,-999.0,90,-99.99,,,-99.99,0.000000,,2013-08-03 02:32:00,
2013-08-02 22:43:00,64.0,61.0,-100.00,West,270,1.0,-999.0,90,-99.99,,,-99.99,0.000000,,2013-08-03 02:43:00,
2013-08-02 22:53:00,64.0,61.0,-100.00,West,270,1.0,-999.0,90,-99.99,,,-99.99,0.000000,,2013-08-03 02:53:00,
2013-08-02 23:00:00,63.0,59.0,-100.00,WNW,292,0.0,-999.0,86,-99.99,,,-99.99,0.000000,,2013-08-03 03:00:00,
2013-08-02 23:43:00,63.0,59.0,-100.00,WNW,292,0.0,-999.0,86,-99.99,,,-99.99,0.000000,,2013-08-03 03:43:00,
2013-08-02 23:53:00,63.0,59.0,-100.00,WNW,292,0.0,-999.0,86,-99.99,,,-99.99,0.000000,,2013-08-03 03:53:00,